sensor_id;sensor_type;location;lat;lon;timestamp;temperature;humidity
73780;SHT30;62093;37.614;15.072;2022-09-09T00:04:38;25.83;67.76
73780;SHT30;62093;37.614;15.072;2022-09-09T00:07:21;25.83;67.72
73780;SHT30;62093;37.614;15.072;2022-09-09T00:12:42;25.83;67.55
73780;SHT30;62093;37.614;15.072;2022-09-09T00:15:19;25.81;67.54
73780;SHT30;62093;37.614;15.072;2022-09-09T00:20:30;25.83;67.48
73780;SHT30;62093;37.614;15.072;2022-09-09T00:23:05;25.81;67.41
73780;SHT30;62093;37.614;15.072;2022-09-09T00:26:11;25.83;67.30
73780;SHT30;62093;37.614;15.072;2022-09-09T00:28:46;25.81;67.28
73780;SHT30;62093;37.614;15.072;2022-09-09T00:31:22;25.81;67.24
73780;SHT30;62093;37.614;15.072;2022-09-09T00:33:50;25.81;67.16
73780;SHT30;62093;37.614;15.072;2022-09-09T00:36:18;25.80;67.17
73780;SHT30;62093;37.614;15.072;2022-09-09T00:38:51;25.81;67.04
73780;SHT30;62093;37.614;15.072;2022-09-09T00:41:51;25.83;67.01
73780;SHT30;62093;37.614;15.072;2022-09-09T00:44:33;25.80;67.00
73780;SHT30;62093;37.614;15.072;2022-09-09T00:47:29;25.78;66.95
73780;SHT30;62093;37.614;15.072;2022-09-09T00:52:56;25.78;66.82
73780;SHT30;62093;37.614;15.072;2022-09-09T00:57:53;25.80;66.75
73780;SHT30;62093;37.614;15.072;2022-09-09T01:00:28;25.80;66.67
73780;SHT30;62093;37.614;15.072;2022-09-09T01:11:25;25.80;66.51
73780;SHT30;62093;37.614;15.072;2022-09-09T01:16:44;25.80;66.45
73780;SHT30;62093;37.614;15.072;2022-09-09T01:19:21;25.80;66.36
73780;SHT30;62093;37.614;15.072;2022-09-09T01:21:59;25.78;66.30
73780;SHT30;62093;37.614;15.072;2022-09-09T01:24:45;25.78;66.26
73780;SHT30;62093;37.614;15.072;2022-09-09T01:27:23;25.80;66.21
73780;SHT30;62093;37.614;15.072;2022-09-09T01:29:49;25.76;66.21
73780;SHT30;62093;37.614;15.072;2022-09-09T01:32:56;25.74;66.14
73780;SHT30;62093;37.614;15.072;2022-09-09T01:36:06;25.80;66.06
73780;SHT30;62093;37.614;15.072;2022-09-09T01:38:15;25.78;66.04
73780;SHT30;62093;37.614;15.072;2022-09-09T01:40:42;25.78;66.13
73780;SHT30;62093;37.614;15.072;2022-09-09T01:43:08;25.77;65.98
73780;SHT30;62093;37.614;15.072;2022-09-09T01:45:36;25.77;65.94
73780;SHT30;62093;37.614;15.072;2022-09-09T01:48:03;25.77;65.83
73780;SHT30;62093;37.614;15.072;2022-09-09T01:50:58;25.78;65.89
73780;SHT30;62093;37.614;15.072;2022-09-09T01:53:24;25.76;65.87
73780;SHT30;62093;37.614;15.072;2022-09-09T02:01:33;25.78;65.74
73780;SHT30;62093;37.614;15.072;2022-09-09T02:04:08;25.78;65.60
73780;SHT30;62093;37.614;15.072;2022-09-09T02:06:41;25.78;65.40
73780;SHT30;62093;37.614;15.072;2022-09-09T02:09:23;25.77;65.51
73780;SHT30;62093;37.614;15.072;2022-09-09T02:12:08;25.80;65.52
73780;SHT30;62093;37.614;15.072;2022-09-09T02:14:49;25.78;65.55
73780;SHT30;62093;37.614;15.072;2022-09-09T02:17:25;25.78;65.48
73780;SHT30;62093;37.614;15.072;2022-09-09T02:20:08;25.78;65.48
73780;SHT30;62093;37.614;15.072;2022-09-09T02:22:55;25.78;65.36
73780;SHT30;62093;37.614;15.072;2022-09-09T02:25:26;25.77;65.40
73780;SHT30;62093;37.614;15.072;2022-09-09T02:27:58;25.78;65.31
73780;SHT30;62093;37.614;15.072;2022-09-09T02:30:24;25.77;65.31
73780;SHT30;62093;37.614;15.072;2022-09-09T02:32:56;25.77;65.29
73780;SHT30;62093;37.614;15.072;2022-09-09T02:35:37;25.80;65.20
73780;SHT30;62093;37.614;15.072;2022-09-09T02:38:08;25.78;65.24
73780;SHT30;62093;37.614;15.072;2022-09-09T02:40:37;25.78;65.20
73780;SHT30;62093;37.614;15.072;2022-09-09T02:43:04;25.76;65.07
73780;SHT30;62093;37.614;15.072;2022-09-09T02:45:40;25.77;65.20
73780;SHT30;62093;37.614;15.072;2022-09-09T02:48:47;25.77;65.16
73780;SHT30;62093;37.614;15.072;2022-09-09T02:51:19;25.77;64.92
73780;SHT30;62093;37.614;15.072;2022-09-09T02:54:14;25.77;65.06
73780;SHT30;62093;37.614;15.072;2022-09-09T02:56:47;25.78;65.02
73780;SHT30;62093;37.614;15.072;2022-09-09T02:59:16;25.78;65.09
73780;SHT30;62093;37.614;15.072;2022-09-09T03:01:42;25.77;65.00
73780;SHT30;62093;37.614;15.072;2022-09-09T03:04:09;25.74;64.97
73780;SHT30;62093;37.614;15.072;2022-09-09T03:06:36;25.76;65.01
73780;SHT30;62093;37.614;15.072;2022-09-09T03:09:13;25.80;64.96
73780;SHT30;62093;37.614;15.072;2022-09-09T03:11:38;25.76;64.92
73780;SHT30;62093;37.614;15.072;2022-09-09T03:14:05;25.76;64.89
73780;SHT30;62093;37.614;15.072;2022-09-09T03:16:31;25.74;64.87
73780;SHT30;62093;37.614;15.072;2022-09-09T03:19:01;25.77;64.85
73780;SHT30;62093;37.614;15.072;2022-09-09T03:21:27;25.78;64.87
73780;SHT30;62093;37.614;15.072;2022-09-09T03:23:54;25.76;64.79
73780;SHT30;62093;37.614;15.072;2022-09-09T03:26:20;25.78;64.77
73780;SHT30;62093;37.614;15.072;2022-09-09T03:28:46;25.77;64.79
73780;SHT30;62093;37.614;15.072;2022-09-09T03:31:16;25.78;64.77
73780;SHT30;62093;37.614;15.072;2022-09-09T03:33:42;25.78;64.66
73780;SHT30;62093;37.614;15.072;2022-09-09T03:36:11;25.78;64.68
73780;SHT30;62093;37.614;15.072;2022-09-09T03:38:38;25.77;64.65
73780;SHT30;62093;37.614;15.072;2022-09-09T03:41:04;25.76;64.60
73780;SHT30;62093;37.614;15.072;2022-09-09T03:43:34;25.77;64.61
73780;SHT30;62093;37.614;15.072;2022-09-09T03:46:00;25.78;64.59
73780;SHT30;62093;37.614;15.072;2022-09-09T03:48:28;25.76;64.52
73780;SHT30;62093;37.614;15.072;2022-09-09T03:50:55;25.78;64.56
73780;SHT30;62093;37.614;15.072;2022-09-09T03:53:27;25.77;64.52
73780;SHT30;62093;37.614;15.072;2022-09-09T03:55:55;25.74;64.55
73780;SHT30;62093;37.614;15.072;2022-09-09T03:58:23;25.74;64.42
73780;SHT30;62093;37.614;15.072;2022-09-09T04:01:07;25.74;64.37
73780;SHT30;62093;37.614;15.072;2022-09-09T04:03:39;25.76;64.44
73780;SHT30;62093;37.614;15.072;2022-09-09T04:06:12;25.74;64.42
73780;SHT30;62093;37.614;15.072;2022-09-09T04:08:41;25.74;64.33
73780;SHT30;62093;37.614;15.072;2022-09-09T04:11:08;25.76;64.45
73780;SHT30;62093;37.614;15.072;2022-09-09T04:13:36;25.76;64.27
73780;SHT30;62093;37.614;15.072;2022-09-09T04:16:07;25.74;64.23
73780;SHT30;62093;37.614;15.072;2022-09-09T04:18:36;25.76;64.37
73780;SHT30;62093;37.614;15.072;2022-09-09T04:21:02;25.76;64.31
73780;SHT30;62093;37.614;15.072;2022-09-09T04:23:31;25.77;64.25
73780;SHT30;62093;37.614;15.072;2022-09-09T04:25:59;25.76;64.30
73780;SHT30;62093;37.614;15.072;2022-09-09T04:28:29;25.74;64.31
73780;SHT30;62093;37.614;15.072;2022-09-09T04:31:03;25.77;64.31
73780;SHT30;62093;37.614;15.072;2022-09-09T04:33:29;25.76;64.20
73780;SHT30;62093;37.614;15.072;2022-09-09T04:35:56;25.74;64.26
73780;SHT30;62093;37.614;15.072;2022-09-09T04:38:25;25.74;64.22
73780;SHT30;62093;37.614;15.072;2022-09-09T04:40:52;25.74;64.24
73780;SHT30;62093;37.614;15.072;2022-09-09T04:43:20;25.76;64.16
73780;SHT30;62093;37.614;15.072;2022-09-09T04:45:48;25.74;64.21
73780;SHT30;62093;37.614;15.072;2022-09-09T04:48:14;25.74;64.17
73780;SHT30;62093;37.614;15.072;2022-09-09T04:50:40;25.77;64.09
73780;SHT30;62093;37.614;15.072;2022-09-09T04:53:08;25.74;64.11
73780;SHT30;62093;37.614;15.072;2022-09-09T04:55:36;25.73;64.07
73780;SHT30;62093;37.614;15.072;2022-09-09T04:58:04;25.74;64.11
73780;SHT30;62093;37.614;15.072;2022-09-09T05:00:32;25.73;64.14
73780;SHT30;62093;37.614;15.072;2022-09-09T05:03:05;25.73;64.14
73780;SHT30;62093;37.614;15.072;2022-09-09T05:05:33;25.74;64.08
73780;SHT30;62093;37.614;15.072;2022-09-09T05:08:04;25.76;64.08
73780;SHT30;62093;37.614;15.072;2022-09-09T05:10:31;25.73;64.08
73780;SHT30;62093;37.614;15.072;2022-09-09T05:12:58;25.74;64.09
73780;SHT30;62093;37.614;15.072;2022-09-09T05:15:26;25.70;63.39
73780;SHT30;62093;37.614;15.072;2022-09-09T05:17:52;25.70;63.55
73780;SHT30;62093;37.614;15.072;2022-09-09T05:20:19;25.71;63.88
73780;SHT30;62093;37.614;15.072;2022-09-09T05:22:45;25.71;63.51
73780;SHT30;62093;37.614;15.072;2022-09-09T05:25:11;25.71;63.87
73780;SHT30;62093;37.614;15.072;2022-09-09T05:27:37;25.73;63.74
73780;SHT30;62093;37.614;15.072;2022-09-09T05:30:04;25.71;63.85
73780;SHT30;62093;37.614;15.072;2022-09-09T05:32:30;25.73;63.94
73780;SHT30;62093;37.614;15.072;2022-09-09T05:35:00;25.74;63.93
73780;SHT30;62093;37.614;15.072;2022-09-09T05:37:28;25.74;63.95
73780;SHT30;62093;37.614;15.072;2022-09-09T05:39:56;25.74;63.96
73780;SHT30;62093;37.614;15.072;2022-09-09T05:42:22;25.71;62.88
73780;SHT30;62093;37.614;15.072;2022-09-09T05:44:47;25.74;63.86
73780;SHT30;62093;37.614;15.072;2022-09-09T05:47:13;25.71;63.53
73780;SHT30;62093;37.614;15.072;2022-09-09T05:49:41;25.74;63.43
73780;SHT30;62093;37.614;15.072;2022-09-09T05:52:07;25.74;63.62
73780;SHT30;62093;37.614;15.072;2022-09-09T05:54:34;25.76;63.62
73780;SHT30;62093;37.614;15.072;2022-09-09T05:57:01;25.74;63.66
73780;SHT30;62093;37.614;15.072;2022-09-09T05:59:28;25.71;63.81
73780;SHT30;62093;37.614;15.072;2022-09-09T06:01:55;25.74;63.43
73780;SHT30;62093;37.614;15.072;2022-09-09T06:04:30;25.73;63.76
73780;SHT30;62093;37.614;15.072;2022-09-09T06:06:59;25.74;63.81
73780;SHT30;62093;37.614;15.072;2022-09-09T06:09:25;25.73;63.79
73780;SHT30;62093;37.614;15.072;2022-09-09T06:11:50;25.74;63.92
73780;SHT30;62093;37.614;15.072;2022-09-09T06:14:18;25.74;63.83
73780;SHT30;62093;37.614;15.072;2022-09-09T06:16:46;25.73;63.89
73780;SHT30;62093;37.614;15.072;2022-09-09T06:19:19;25.73;63.87
73780;SHT30;62093;37.614;15.072;2022-09-09T06:21:46;25.73;63.90
73780;SHT30;62093;37.614;15.072;2022-09-09T06:24:13;25.71;63.66
73780;SHT30;62093;37.614;15.072;2022-09-09T06:26:43;25.71;63.79
73780;SHT30;62093;37.614;15.072;2022-09-09T06:29:12;25.73;63.83
73780;SHT30;62093;37.614;15.072;2022-09-09T06:31:40;25.73;63.84
73780;SHT30;62093;37.614;15.072;2022-09-09T06:34:15;25.74;63.82
73780;SHT30;62093;37.614;15.072;2022-09-09T06:36:45;25.74;63.80
73780;SHT30;62093;37.614;15.072;2022-09-09T06:39:12;25.73;63.87
73780;SHT30;62093;37.614;15.072;2022-09-09T06:41:39;25.74;63.81
73780;SHT30;62093;37.614;15.072;2022-09-09T06:44:09;25.73;63.95
73780;SHT30;62093;37.614;15.072;2022-09-09T06:46:41;25.74;63.97
73780;SHT30;62093;37.614;15.072;2022-09-09T06:49:09;25.76;64.06
73780;SHT30;62093;37.614;15.072;2022-09-09T06:51:37;25.77;64.02
73780;SHT30;62093;37.614;15.072;2022-09-09T06:54:11;25.77;64.17
73780;SHT30;62093;37.614;15.072;2022-09-09T06:56:39;25.76;64.12
73780;SHT30;62093;37.614;15.072;2022-09-09T06:59:14;25.77;64.17
73780;SHT30;62093;37.614;15.072;2022-09-09T07:01:42;25.76;64.22
73780;SHT30;62093;37.614;15.072;2022-09-09T07:04:13;25.77;64.10
73780;SHT30;62093;37.614;15.072;2022-09-09T07:06:44;25.74;64.11
73780;SHT30;62093;37.614;15.072;2022-09-09T07:09:15;25.76;64.12
73780;SHT30;62093;37.614;15.072;2022-09-09T07:11:47;25.78;64.15
73780;SHT30;62093;37.614;15.072;2022-09-09T07:14:14;25.77;64.10
73780;SHT30;62093;37.614;15.072;2022-09-09T07:16:44;25.77;64.09
73780;SHT30;62093;37.614;15.072;2022-09-09T07:19:13;25.78;64.25
73780;SHT30;62093;37.614;15.072;2022-09-09T07:21:40;25.80;64.23
73780;SHT30;62093;37.614;15.072;2022-09-09T07:24:08;25.80;64.24
73780;SHT30;62093;37.614;15.072;2022-09-09T07:26:37;25.78;64.30
73780;SHT30;62093;37.614;15.072;2022-09-09T07:29:04;25.83;64.26
73780;SHT30;62093;37.614;15.072;2022-09-09T07:31:33;25.78;64.22
73780;SHT30;62093;37.614;15.072;2022-09-09T07:34:01;25.77;64.32
73780;SHT30;62093;37.614;15.072;2022-09-09T07:36:59;25.78;64.17
73780;SHT30;62093;37.614;15.072;2022-09-09T07:39:36;25.78;64.19
73780;SHT30;62093;37.614;15.072;2022-09-09T07:42:03;25.80;64.17
73780;SHT30;62093;37.614;15.072;2022-09-09T07:44:30;25.84;64.17
73780;SHT30;62093;37.614;15.072;2022-09-09T07:47:08;25.80;64.26
73780;SHT30;62093;37.614;15.072;2022-09-09T07:49:38;25.81;64.22
73780;SHT30;62093;37.614;15.072;2022-09-09T07:52:06;25.83;64.26
73780;SHT30;62093;37.614;15.072;2022-09-09T07:54:32;25.81;64.35
73780;SHT30;62093;37.614;15.072;2022-09-09T07:57:00;25.83;64.29
73780;SHT30;62093;37.614;15.072;2022-09-09T07:59:28;25.81;64.34
73780;SHT30;62093;37.614;15.072;2022-09-09T08:01:56;25.81;64.34
73780;SHT30;62093;37.614;15.072;2022-09-09T08:04:27;25.83;64.27
73780;SHT30;62093;37.614;15.072;2022-09-09T08:06:59;25.84;64.19
73780;SHT30;62093;37.614;15.072;2022-09-09T08:09:28;25.84;64.23
73780;SHT30;62093;37.614;15.072;2022-09-09T08:12:00;25.87;64.30
73780;SHT30;62093;37.614;15.072;2022-09-09T08:14:28;25.90;64.31
73780;SHT30;62093;37.614;15.072;2022-09-09T08:16:56;25.88;64.17
73780;SHT30;62093;37.614;15.072;2022-09-09T08:19:25;25.88;64.23
73780;SHT30;62093;37.614;15.072;2022-09-09T08:21:52;25.88;64.08
73780;SHT30;62093;37.614;15.072;2022-09-09T08:24:18;25.86;64.28
73780;SHT30;62093;37.614;15.072;2022-09-09T08:26:48;25.90;64.30
73780;SHT30;62093;37.614;15.072;2022-09-09T08:29:17;25.88;64.29
73780;SHT30;62093;37.614;15.072;2022-09-09T08:34:12;25.88;64.20
73780;SHT30;62093;37.614;15.072;2022-09-09T08:36:43;25.90;64.17
73780;SHT30;62093;37.614;15.072;2022-09-09T08:39:13;25.91;64.16
73780;SHT30;62093;37.614;15.072;2022-09-09T08:52:43;25.94;64.16
73780;SHT30;62093;37.614;15.072;2022-09-09T08:57:54;25.94;64.19
73780;SHT30;62093;37.614;15.072;2022-09-09T09:00:21;25.96;64.18
73780;SHT30;62093;37.614;15.072;2022-09-09T09:11:35;25.98;64.21
73780;SHT30;62093;37.614;15.072;2022-09-09T09:19:16;26.01;64.15
73780;SHT30;62093;37.614;15.072;2022-09-09T09:21:59;26.04;64.22
73780;SHT30;62093;37.614;15.072;2022-09-09T09:24:45;26.01;64.18
73780;SHT30;62093;37.614;15.072;2022-09-09T09:27:16;26.01;64.21
73780;SHT30;62093;37.614;15.072;2022-09-09T09:29:50;26.04;64.24
73780;SHT30;62093;37.614;15.072;2022-09-09T09:32:19;26.02;64.18
73780;SHT30;62093;37.614;15.072;2022-09-09T09:34:53;26.02;64.20
73780;SHT30;62093;37.614;15.072;2022-09-09T09:37:27;26.04;64.19
73780;SHT30;62093;37.614;15.072;2022-09-09T09:40:07;26.04;64.19
73780;SHT30;62093;37.614;15.072;2022-09-09T09:42:32;26.04;64.23
73780;SHT30;62093;37.614;15.072;2022-09-09T09:45:20;26.04;64.19
73780;SHT30;62093;37.614;15.072;2022-09-09T09:48:08;26.05;64.19
73780;SHT30;62093;37.614;15.072;2022-09-09T09:53:22;26.08;64.17
73780;SHT30;62093;37.614;15.072;2022-09-09T09:55:55;26.08;64.13
73780;SHT30;62093;37.614;15.072;2022-09-09T09:58:22;26.08;64.17
73780;SHT30;62093;37.614;15.072;2022-09-09T10:00:52;26.08;64.17
73780;SHT30;62093;37.614;15.072;2022-09-09T10:03:28;26.08;64.19
73780;SHT30;62093;37.614;15.072;2022-09-09T10:05:56;26.13;64.20
73780;SHT30;62093;37.614;15.072;2022-09-09T10:08:25;26.13;64.19
73780;SHT30;62093;37.614;15.072;2022-09-09T10:19:15;26.11;64.21
73780;SHT30;62093;37.614;15.072;2022-09-09T10:35:28;26.18;64.08
73780;SHT30;62093;37.614;15.072;2022-09-09T10:38:15;26.16;64.16
73780;SHT30;62093;37.614;15.072;2022-09-09T10:51:50;26.18;64.21
73780;SHT30;62093;37.614;15.072;2022-09-09T10:57:13;26.22;64.14
73780;SHT30;62093;37.614;15.072;2022-09-09T10:59:47;26.21;64.27
73780;SHT30;62093;37.614;15.072;2022-09-09T11:02:26;26.20;64.08
73780;SHT30;62093;37.614;15.072;2022-09-09T11:07:29;26.24;64.11
73780;SHT30;62093;37.614;15.072;2022-09-09T11:10:02;26.24;64.07
73780;SHT30;62093;37.614;15.072;2022-09-09T11:12:36;26.25;64.03
73780;SHT30;62093;37.614;15.072;2022-09-09T11:15:12;26.27;63.98
73780;SHT30;62093;37.614;15.072;2022-09-09T11:17:46;26.28;63.98
73780;SHT30;62093;37.614;15.072;2022-09-09T11:20:15;26.27;63.97
73780;SHT30;62093;37.614;15.072;2022-09-09T11:22:57;26.27;63.87
73780;SHT30;62093;37.614;15.072;2022-09-09T11:25:48;26.28;63.91
73780;SHT30;62093;37.614;15.072;2022-09-09T11:38:28;26.28;63.83
73780;SHT30;62093;37.614;15.072;2022-09-09T11:40:59;26.31;63.73
73780;SHT30;62093;37.614;15.072;2022-09-09T11:43:44;26.29;63.63
73780;SHT30;62093;37.614;15.072;2022-09-09T11:46:13;26.31;63.63
73780;SHT30;62093;37.614;15.072;2022-09-09T11:48:59;26.28;63.62
73780;SHT30;62093;37.614;15.072;2022-09-09T11:51:28;26.32;63.45
73780;SHT30;62093;37.614;15.072;2022-09-09T11:56:31;26.37;63.48
73780;SHT30;62093;37.614;15.072;2022-09-09T11:59:17;26.35;63.51
73780;SHT30;62093;37.614;15.072;2022-09-09T12:01:48;26.37;63.37
73780;SHT30;62093;37.614;15.072;2022-09-09T12:09:33;26.41;63.31
73780;SHT30;62093;37.614;15.072;2022-09-09T12:12:21;26.41;63.21
73780;SHT30;62093;37.614;15.072;2022-09-09T12:17:29;26.39;63.23
73780;SHT30;62093;37.614;15.072;2022-09-09T12:20:15;26.42;63.11
73780;SHT30;62093;37.614;15.072;2022-09-09T12:26:05;26.39;63.08
73780;SHT30;62093;37.614;15.072;2022-09-09T12:28:42;26.39;62.97
73780;SHT30;62093;37.614;15.072;2022-09-09T12:33:54;26.39;63.09
73780;SHT30;62093;37.614;15.072;2022-09-09T12:36:29;26.45;63.00
73780;SHT30;62093;37.614;15.072;2022-09-09T12:38:58;26.42;62.90
73780;SHT30;62093;37.614;15.072;2022-09-09T12:41:28;26.44;63.00
73780;SHT30;62093;37.614;15.072;2022-09-09T12:44:08;26.48;62.98
73780;SHT30;62093;37.614;15.072;2022-09-09T12:46:38;26.47;62.92
73780;SHT30;62093;37.614;15.072;2022-09-09T12:49:04;26.47;62.89
73780;SHT30;62093;37.614;15.072;2022-09-09T12:51:32;26.48;62.84
73780;SHT30;62093;37.614;15.072;2022-09-09T12:53:59;26.49;62.83
73780;SHT30;62093;37.614;15.072;2022-09-09T12:56:28;26.49;62.82
73780;SHT30;62093;37.614;15.072;2022-09-09T13:02:20;26.51;62.80
73780;SHT30;62093;37.614;15.072;2022-09-09T13:04:47;26.48;62.79
73780;SHT30;62093;37.614;15.072;2022-09-09T13:07:14;26.52;62.81
73780;SHT30;62093;37.614;15.072;2022-09-09T13:09:42;26.51;62.76
73780;SHT30;62093;37.614;15.072;2022-09-09T13:12:14;26.51;62.80
73780;SHT30;62093;37.614;15.072;2022-09-09T13:14:44;26.52;62.77
73780;SHT30;62093;37.614;15.072;2022-09-09T13:17:21;26.52;62.87
73780;SHT30;62093;37.614;15.072;2022-09-09T13:19:48;26.53;62.87
73780;SHT30;62093;37.614;15.072;2022-09-09T13:22:30;26.53;62.80
73780;SHT30;62093;37.614;15.072;2022-09-09T13:25:17;26.53;62.82
73780;SHT30;62093;37.614;15.072;2022-09-09T13:35:31;26.59;62.83
73780;SHT30;62093;37.614;15.072;2022-09-09T13:37:58;26.60;62.76
73780;SHT30;62093;37.614;15.072;2022-09-09T13:40:25;26.60;62.77
73780;SHT30;62093;37.614;15.072;2022-09-09T13:42:55;26.60;62.74
73780;SHT30;62093;37.614;15.072;2022-09-09T13:45:24;26.60;62.78
73780;SHT30;62093;37.614;15.072;2022-09-09T13:47:53;26.62;62.76
73780;SHT30;62093;37.614;15.072;2022-09-09T13:52:51;26.67;62.69
73780;SHT30;62093;37.614;15.072;2022-09-09T13:55:20;26.67;62.64
73780;SHT30;62093;37.614;15.072;2022-09-09T14:00:23;26.69;62.68
73780;SHT30;62093;37.614;15.072;2022-09-09T14:02:52;26.69;62.63
73780;SHT30;62093;37.614;15.072;2022-09-09T14:05:20;26.72;62.69
73780;SHT30;62093;37.614;15.072;2022-09-09T14:07:48;26.69;62.69
73780;SHT30;62093;37.614;15.072;2022-09-09T14:10:14;26.71;62.68
73780;SHT30;62093;37.614;15.072;2022-09-09T14:12:40;26.72;62.65
73780;SHT30;62093;37.614;15.072;2022-09-09T14:15:07;26.71;62.74
73780;SHT30;62093;37.614;15.072;2022-09-09T14:17:33;26.71;62.74
73780;SHT30;62093;37.614;15.072;2022-09-09T14:20:03;26.71;62.83
73780;SHT30;62093;37.614;15.072;2022-09-09T14:22:33;26.69;62.84
73780;SHT30;62093;37.614;15.072;2022-09-09T14:24:59;26.72;62.83
73780;SHT30;62093;37.614;15.072;2022-09-09T14:27:25;26.71;62.81
73780;SHT30;62093;37.614;15.072;2022-09-09T14:29:54;26.69;62.89
73780;SHT30;62093;37.614;15.072;2022-09-09T14:32:20;26.69;62.86
73780;SHT30;62093;37.614;15.072;2022-09-09T14:34:46;26.71;62.84
73780;SHT30;62093;37.614;15.072;2022-09-09T14:37:16;26.71;62.84
73780;SHT30;62093;37.614;15.072;2022-09-09T14:39:42;26.73;62.86
73780;SHT30;62093;37.614;15.072;2022-09-09T14:42:10;26.73;62.81
73780;SHT30;62093;37.614;15.072;2022-09-09T14:44:37;26.71;62.81
73780;SHT30;62093;37.614;15.072;2022-09-09T14:47:06;26.72;62.87
73780;SHT30;62093;37.614;15.072;2022-09-09T14:49:37;26.75;62.87
73780;SHT30;62093;37.614;15.072;2022-09-09T14:52:04;26.75;62.87
73780;SHT30;62093;37.614;15.072;2022-09-09T14:54:31;26.75;62.93
73780;SHT30;62093;37.614;15.072;2022-09-09T14:56:58;26.72;62.91
73780;SHT30;62093;37.614;15.072;2022-09-09T14:59:24;26.73;62.90
73780;SHT30;62093;37.614;15.072;2022-09-09T15:01:50;26.76;62.92
73780;SHT30;62093;37.614;15.072;2022-09-09T15:04:16;26.72;62.89
73780;SHT30;62093;37.614;15.072;2022-09-09T15:06:43;26.72;62.95
73780;SHT30;62093;37.614;15.072;2022-09-09T15:09:14;26.73;62.92
73780;SHT30;62093;37.614;15.072;2022-09-09T15:11:40;26.71;63.00
73780;SHT30;62093;37.614;15.072;2022-09-09T15:14:08;26.72;62.99
73780;SHT30;62093;37.614;15.072;2022-09-09T15:16:35;26.72;63.04
73780;SHT30;62093;37.614;15.072;2022-09-09T15:19:02;26.73;63.01
73780;SHT30;62093;37.614;15.072;2022-09-09T15:21:31;26.75;63.04
73780;SHT30;62093;37.614;15.072;2022-09-09T15:23:58;26.71;63.11
73780;SHT30;62093;37.614;15.072;2022-09-09T15:26:25;26.71;63.12
73780;SHT30;62093;37.614;15.072;2022-09-09T15:28:51;26.73;63.11
73780;SHT30;62093;37.614;15.072;2022-09-09T15:31:22;26.73;63.14
73780;SHT30;62093;37.614;15.072;2022-09-09T15:33:53;26.75;63.10
73780;SHT30;62093;37.614;15.072;2022-09-09T15:38:46;26.73;63.14
73780;SHT30;62093;37.614;15.072;2022-09-09T15:41:13;26.69;63.17
73780;SHT30;62093;37.614;15.072;2022-09-09T15:43:45;26.72;63.18
73780;SHT30;62093;37.614;15.072;2022-09-09T15:48:44;26.69;63.27
73780;SHT30;62093;37.614;15.072;2022-09-09T15:51:10;26.71;63.31
73780;SHT30;62093;37.614;15.072;2022-09-09T15:53:37;26.68;63.46
73780;SHT30;62093;37.614;15.072;2022-09-09T15:56:05;26.75;63.45
73780;SHT30;62093;37.614;15.072;2022-09-09T15:58:35;26.78;63.33
73780;SHT30;62093;37.614;15.072;2022-09-09T16:01:06;26.79;62.98
73780;SHT30;62093;37.614;15.072;2022-09-09T16:03:42;26.79;62.82
73780;SHT30;62093;37.614;15.072;2022-09-09T16:06:08;26.79;62.38
73780;SHT30;62093;37.614;15.072;2022-09-09T16:08:40;26.76;61.45
73780;SHT30;62093;37.614;15.072;2022-09-09T16:11:15;26.73;61.39
73780;SHT30;62093;37.614;15.072;2022-09-09T16:13:45;26.76;61.69
73780;SHT30;62093;37.614;15.072;2022-09-09T16:16:12;26.78;60.91
73780;SHT30;62093;37.614;15.072;2022-09-09T16:18:47;26.82;60.53
73780;SHT30;62093;37.614;15.072;2022-09-09T16:21:16;26.79;59.71
73780;SHT30;62093;37.614;15.072;2022-09-09T16:23:43;26.85;59.46
73780;SHT30;62093;37.614;15.072;2022-09-09T16:26:14;26.86;58.84
73780;SHT30;62093;37.614;15.072;2022-09-09T16:28:40;26.92;57.84
73780;SHT30;62093;37.614;15.072;2022-09-09T16:31:07;26.99;57.94
73780;SHT30;62093;37.614;15.072;2022-09-09T16:33:36;26.90;58.79
73780;SHT30;62093;37.614;15.072;2022-09-09T16:36:07;26.89;58.82
73780;SHT30;62093;37.614;15.072;2022-09-09T16:38:33;26.88;58.76
73780;SHT30;62093;37.614;15.072;2022-09-09T16:41:02;26.83;58.83
73780;SHT30;62093;37.614;15.072;2022-09-09T16:43:28;26.86;58.94
73780;SHT30;62093;37.614;15.072;2022-09-09T16:45:54;26.86;59.10
73780;SHT30;62093;37.614;15.072;2022-09-09T16:48:20;26.86;59.28
73780;SHT30;62093;37.614;15.072;2022-09-09T16:50:45;26.90;59.38
73780;SHT30;62093;37.614;15.072;2022-09-09T16:53:12;26.90;59.41
73780;SHT30;62093;37.614;15.072;2022-09-09T16:55:39;26.89;59.46
73780;SHT30;62093;37.614;15.072;2022-09-09T16:58:06;26.89;59.62
73780;SHT30;62093;37.614;15.072;2022-09-09T17:00:32;26.89;59.72
73780;SHT30;62093;37.614;15.072;2022-09-09T17:02:59;26.88;59.90
73780;SHT30;62093;37.614;15.072;2022-09-09T17:05:25;26.85;59.82
73780;SHT30;62093;37.614;15.072;2022-09-09T17:07:51;26.88;59.84
73780;SHT30;62093;37.614;15.072;2022-09-09T17:10:17;26.85;59.85
73780;SHT30;62093;37.614;15.072;2022-09-09T17:12:43;26.85;59.82
73780;SHT30;62093;37.614;15.072;2022-09-09T17:15:09;26.83;59.75
73780;SHT30;62093;37.614;15.072;2022-09-09T17:17:35;26.80;59.91
73780;SHT30;62093;37.614;15.072;2022-09-09T17:20:01;26.79;60.26
73780;SHT30;62093;37.614;15.072;2022-09-09T17:22:27;26.78;60.01
73780;SHT30;62093;37.614;15.072;2022-09-09T17:24:54;26.76;60.13
73780;SHT30;62093;37.614;15.072;2022-09-09T17:27:20;26.75;60.16
73780;SHT30;62093;37.614;15.072;2022-09-09T17:29:46;26.76;60.23
73780;SHT30;62093;37.614;15.072;2022-09-09T17:32:12;26.73;60.29
73780;SHT30;62093;37.614;15.072;2022-09-09T17:34:38;26.76;60.31
73780;SHT30;62093;37.614;15.072;2022-09-09T17:37:04;26.73;60.39
73780;SHT30;62093;37.614;15.072;2022-09-09T17:39:31;26.71;60.45
73780;SHT30;62093;37.614;15.072;2022-09-09T17:41:58;26.72;60.51
73780;SHT30;62093;37.614;15.072;2022-09-09T17:44:24;26.69;60.56
73780;SHT30;62093;37.614;15.072;2022-09-09T17:46:49;26.68;60.54
73780;SHT30;62093;37.614;15.072;2022-09-09T17:49:16;26.67;60.60
73780;SHT30;62093;37.614;15.072;2022-09-09T17:51:45;26.67;60.67
73780;SHT30;62093;37.614;15.072;2022-09-09T17:54:14;26.69;60.72
73780;SHT30;62093;37.614;15.072;2022-09-09T17:56:40;26.68;60.78
73780;SHT30;62093;37.614;15.072;2022-09-09T17:59:08;26.67;60.82
73780;SHT30;62093;37.614;15.072;2022-09-09T18:01:37;26.65;60.87
73780;SHT30;62093;37.614;15.072;2022-09-09T18:04:06;26.65;60.91
73780;SHT30;62093;37.614;15.072;2022-09-09T18:06:39;26.65;60.94